Time;durP1;ratioP1;P1;durP2;ratioP2;P2;SDS_P1;SDS_P2;PMS_P1;PMS_P2;Temp;Humidity;BMP_temperature;BMP_pressure;BME280_temperature;BME280_humidity;BME280_pressure;Samples;Min_cycle;Max_cycle;Signal;HPM_P1;HPM_P2
2022/05/10 00:02:23;;;;;;;6.80;4.00;;;14.50;99.90;;;;;;4997308;28;20045;-60
2022/05/10 00:04:50;;;;;;;6.30;3.63;;;14.60;99.90;;;;;;4998183;28;20084;-59
2022/05/10 00:07:17;;;;;;;9.50;4.32;;;14.60;99.90;;;;;;4998304;28;20038;-59
2022/05/10 00:09:43;;;;;;;6.40;4.22;;;14.60;99.90;;;;;;5002372;28;20034;-55
2022/05/10 00:12:09;;;;;;;4.35;3.75;;;14.60;99.90;;;;;;5010992;28;20030;-59
2022/05/10 00:14:35;;;;;;;11.02;3.45;;;14.60;99.90;;;;;;5010867;28;20502;-58
2022/05/10 00:17:01;;;;;;;6.68;3.58;;;14.60;99.90;;;;;;5002732;28;20056;-59
2022/05/10 00:19:30;;;;;;;6.07;4.53;;;14.60;99.90;;;;;;5005642;28;20518;-60
2022/05/10 00:21:56;;;;;;;7.38;3.95;;;14.60;99.90;;;;;;5003533;28;20052;-60
2022/05/10 00:24:22;;;;;;;9.32;3.88;;;14.50;99.90;;;;;;4993150;28;20018;-60
2022/05/10 00:26:48;;;;;;;9.05;5.15;;;14.60;99.90;;;;;;5008766;28;20546;-60
2022/05/10 00:29:14;;;;;;;11.10;4.68;;;14.60;99.90;;;;;;5011880;28;20030;-60
2022/05/10 00:31:39;;;;;;;6.93;3.80;;;14.50;99.90;;;;;;4989982;28;20065;-60
2022/05/10 00:34:05;;;;;;;6.93;4.00;;;14.50;99.90;;;;;;5004640;28;20026;-61
2022/05/10 00:36:32;;;;;;;6.75;4.25;;;14.50;99.90;;;;;;5005850;28;20074;-60
2022/05/10 00:38:58;;;;;;;6.80;5.65;;;14.40;99.90;;;;;;5004850;28;20031;-58
2022/05/10 00:42:02;;;;;;;9.55;4.60;;;14.40;99.90;;;;;;4991224;28;20046;-60
2022/05/10 00:44:34;;;;;;;9.50;4.38;;;14.40;99.90;;;;;;4997805;28;20060;-59
2022/05/10 00:47:02;;;;;;;8.77;4.03;;;14.40;99.90;;;;;;4997107;28;20484;-60
2022/05/10 00:49:52;;;;;;;8.05;4.40;;;14.30;99.90;;;;;;5001496;28;20030;-60
2022/05/10 00:52:29;;;;;;;6.35;3.95;;;14.30;99.90;;;;;;4996258;28;20112;-60
2022/05/10 00:55:13;;;;;;;6.93;4.50;;;14.30;99.90;;;;;;5000131;28;20484;-60
2022/05/10 00:57:38;;;;;;;7.10;4.13;;;14.30;99.90;;;;;;4997749;28;20030;-60
2022/05/10 01:00:17;;;;;;;5.65;3.78;;;14.30;99.90;;;;;;5002339;28;20022;-60
2022/05/10 01:02:46;;;;;;;8.50;4.35;;;14.30;99.90;;;;;;4999370;28;20108;-61
2022/05/10 01:05:32;;;;;;;9.25;3.95;;;14.20;99.90;;;;;;4996689;28;20360;-61
2022/05/10 01:08:02;;;;;;;5.30;3.85;;;14.20;99.90;;;;;;5006087;28;20561;-58
2022/05/10 01:10:48;;;;;;;5.32;4.15;;;14.20;99.90;;;;;;5007208;28;20041;-59
2022/05/10 01:13:31;;;;;;;9.48;4.53;;;14.20;99.90;;;;;;5008137;28;20030;-59
2022/05/10 01:16:03;;;;;;;7.93;4.95;;;14.20;99.90;;;;;;5000880;28;20050;-59
2022/05/10 01:18:29;;;;;;;6.22;4.15;;;14.20;99.90;;;;;;4997212;28;20022;-58
2022/05/10 01:21:02;;;;;;;9.52;4.28;;;14.20;99.90;;;;;;5009120;28;20101;-60
2022/05/10 01:24:05;;;;;;;10.70;5.13;;;14.10;99.90;;;;;;5006563;28;20038;-60
2022/05/10 01:26:36;;;;;;;7.22;4.25;;;14.10;99.90;;;;;;4992516;28;20503;-60
2022/05/10 01:29:09;;;;;;;5.90;4.10;;;14.10;99.90;;;;;;5003352;28;20030;-60
2022/05/10 01:31:40;;;;;;;11.07;4.15;;;14.10;99.90;;;;;;5009363;28;20514;-60
2022/05/10 01:34:11;;;;;;;5.85;4.13;;;14.10;99.90;;;;;;5002781;28;20041;-60
2022/05/10 01:36:48;;;;;;;4.82;4.20;;;14.10;99.90;;;;;;5000887;28;20034;-58
2022/05/10 01:39:40;;;;;;;8.70;4.60;;;14.10;99.90;;;;;;4994980;28;20026;-60
2022/05/10 01:42:37;;;;;;;6.63;4.22;;;14.00;99.90;;;;;;4989458;28;20053;-62
2022/05/10 01:45:15;;;;;;;7.40;4.60;;;14.00;99.90;;;;;;5010051;28;20080;-59
2022/05/10 01:47:50;;;;;;;10.98;5.70;;;13.90;99.90;;;;;;5003617;28;20033;-62
2022/05/10 01:50:22;;;;;;;8.10;4.20;;;13.90;99.90;;;;;;5005897;28;20034;-60
2022/05/10 01:53:01;;;;;;;10.18;4.82;;;13.90;99.90;;;;;;5008872;28;20053;-59
2022/05/10 01:55:26;;;;;;;7.18;4.03;;;13.90;99.90;;;;;;5004871;28;20018;-62
2022/05/10 01:57:54;;;;;;;5.28;4.55;;;13.80;99.90;;;;;;5000817;28;20034;-62
2022/05/10 02:00:24;;;;;;;5.65;4.10;;;13.80;99.90;;;;;;5006429;28;20033;-61
2022/05/10 02:02:54;;;;;;;7.13;4.35;;;13.70;99.90;;;;;;5000432;28;20418;-62
2022/05/10 02:05:38;;;;;;;6.00;4.85;;;13.70;99.90;;;;;;4999525;28;20032;-60
2022/05/10 02:08:15;;;;;;;9.27;5.65;;;13.70;99.90;;;;;;5003933;28;20032;-62
2022/05/10 02:10:47;;;;;;;8.63;4.63;;;13.60;99.90;;;;;;5000329;28;20030;-62
2022/05/10 02:13:19;;;;;;;7.55;4.97;;;13.60;99.90;;;;;;5005061;28;20068;-61
2022/05/10 02:15:51;;;;;;;8.93;5.00;;;13.60;99.90;;;;;;5008502;28;20199;-62
2022/05/10 02:18:39;;;;;;;6.90;4.13;;;13.60;99.90;;;;;;5007080;28;20044;-60
2022/05/10 02:21:28;;;;;;;6.28;4.93;;;13.50;99.90;;;;;;4992444;28;20419;-62
2022/05/10 02:24:09;;;;;;;8.75;4.97;;;13.50;99.90;;;;;;5004751;28;20490;-60
2022/05/10 02:26:48;;;;;;;7.65;5.22;;;13.40;99.90;;;;;;5007848;28;20030;-59
2022/05/10 02:29:23;;;;;;;6.00;4.55;;;13.40;99.90;;;;;;5009065;28;20506;-59
2022/05/10 02:34:44;;;;;;;6.70;4.72;;;13.40;99.90;;;;;;5006706;28;20509;-60
2022/05/10 02:37:09;;;;;;;7.78;4.78;;;13.30;99.90;;;;;;5012213;28;20446;-59
2022/05/10 02:39:36;;;;;;;9.05;5.22;;;13.30;99.90;;;;;;5010981;28;20073;-60
2022/05/10 02:42:03;;;;;;;7.22;5.05;;;13.30;99.90;;;;;;4990486;28;20088;-60
2022/05/10 02:44:28;;;;;;;6.20;4.70;;;13.30;99.90;;;;;;4997836;28;20113;-55
2022/05/10 02:46:55;;;;;;;5.55;4.18;;;13.30;99.90;;;;;;5007052;28;20122;-59
2022/05/10 02:49:21;;;;;;;8.52;4.90;;;13.30;99.90;;;;;;5005708;28;20503;-59
2022/05/10 02:51:47;;;;;;;9.23;4.88;;;13.30;99.90;;;;;;5011828;28;20068;-61
2022/05/10 02:54:13;;;;;;;8.57;5.53;;;13.20;99.90;;;;;;5012843;28;20470;-60
2022/05/10 02:56:41;;;;;;;10.07;5.15;;;13.20;99.90;;;;;;5009533;28;20030;-60
2022/05/10 02:59:12;;;;;;;11.63;4.38;;;13.20;99.90;;;;;;5011443;28;20080;-60
2022/05/10 03:01:51;;;;;;;7.88;5.32;;;13.20;99.90;;;;;;5004252;28;20034;-60
2022/05/10 03:04:16;;;;;;;7.50;4.95;;;13.20;99.90;;;;;;5003354;28;20494;-60
2022/05/10 03:06:46;;;;;;;6.95;5.22;;;13.20;99.90;;;;;;5008089;28;20084;-60
2022/05/10 03:09:12;;;;;;;8.05;5.03;;;13.10;99.90;;;;;;5011273;28;20106;-60
2022/05/10 03:11:39;;;;;;;7.88;5.20;;;13.10;99.90;;;;;;5011273;28;20112;-59
2022/05/10 03:14:06;;;;;;;8.55;5.50;;;13.10;99.90;;;;;;5011965;28;20030;-59
2022/05/10 03:16:32;;;;;;;11.80;5.93;;;13.00;99.90;;;;;;5011407;28;20542;-61
2022/05/10 03:18:58;;;;;;;7.18;5.88;;;13.00;99.90;;;;;;5012205;28;20034;-60
2022/05/10 03:21:24;;;;;;;7.30;5.40;;;13.00;99.90;;;;;;5012416;28;20034;-60
2022/05/10 03:23:51;;;;;;;7.97;5.43;;;12.90;99.90;;;;;;5011431;28;20061;-59
2022/05/10 03:26:21;;;;;;;7.10;5.38;;;12.90;99.90;;;;;;5011843;28;20033;-60
2022/05/10 03:28:47;;;;;;;8.15;5.93;;;12.80;99.90;;;;;;5011153;28;20033;-60
2022/05/10 03:31:15;;;;;;;9.85;6.03;;;12.80;99.90;;;;;;5012704;28;20124;-60
2022/05/10 03:33:41;;;;;;;7.43;5.60;;;12.80;99.90;;;;;;5008993;28;20022;-60
2022/05/10 03:36:07;;;;;;;7.60;5.22;;;12.70;99.90;;;;;;5001980;28;20033;-60
2022/05/10 03:38:33;;;;;;;8.25;5.07;;;12.60;99.90;;;;;;5005961;28;20488;-60
2022/05/10 03:40:58;;;;;;;8.57;5.70;;;12.60;99.90;;;;;;4992364;28;20104;-60
2022/05/10 03:43:25;;;;;;;11.55;5.97;;;12.60;99.90;;;;;;5012061;28;20093;-60
2022/05/10 03:45:50;;;;;;;8.30;5.30;;;12.50;99.90;;;;;;5012375;28;20491;-59
2022/05/10 03:48:16;;;;;;;7.03;5.55;;;12.50;99.90;;;;;;5010038;28;20073;-60
2022/05/10 03:50:42;;;;;;;10.63;5.15;;;12.50;99.90;;;;;;5005754;28;20037;-60
2022/05/10 03:53:07;;;;;;;7.65;5.97;;;12.50;99.90;;;;;;5011699;28;20117;-60
2022/05/10 03:55:33;;;;;;;7.25;5.75;;;12.50;99.90;;;;;;5002439;28;20053;-59
2022/05/10 03:57:58;;;;;;;8.75;5.22;;;12.50;99.90;;;;;;5006048;28;20030;-60
2022/05/10 04:00:28;;;;;;;7.28;4.75;;;12.50;99.90;;;;;;5011498;28;20046;-60
2022/05/10 04:02:55;;;;;;;6.80;5.47;;;12.60;99.90;;;;;;5011820;28;20459;-60
2022/05/10 04:05:22;;;;;;;8.68;5.35;;;12.60;99.90;;;;;;5004072;28;20025;-59
2022/05/10 04:07:48;;;;;;;8.65;6.15;;;12.60;99.90;;;;;;5010586;28;20030;-60
2022/05/10 04:10:14;;;;;;;7.63;5.82;;;12.60;99.90;;;;;;5011048;28;20036;-60
2022/05/10 04:12:40;;;;;;;8.57;5.43;;;12.70;99.90;;;;;;5011603;28;20407;-59
2022/05/10 04:15:09;;;;;;;7.25;5.40;;;12.70;99.90;;;;;;5011047;28;20551;-60
2022/05/10 04:17:35;;;;;;;10.77;6.32;;;12.70;99.90;;;;;;5010802;28;20058;-60
2022/05/10 04:20:00;;;;;;;9.40;5.70;;;12.80;99.90;;;;;;5011577;28;20442;-60
2022/05/10 04:22:26;;;;;;;7.68;5.45;;;12.90;99.90;;;;;;5011298;28;20033;-60
2022/05/10 04:24:51;;;;;;;8.02;5.65;;;12.90;99.90;;;;;;5010578;28;20038;-60
2022/05/10 04:27:17;;;;;;;8.68;5.18;;;13.00;99.90;;;;;;5010806;28;20033;-60
2022/05/10 04:29:43;;;;;;;8.55;6.53;;;13.10;99.90;;;;;;5008385;28;20034;-60
2022/05/10 04:32:08;;;;;;;6.47;4.97;;;13.20;99.90;;;;;;5010675;28;20041;-58
2022/05/10 04:34:34;;;;;;;11.05;5.40;;;13.30;99.90;;;;;;5005761;28;20021;-60
2022/05/10 04:37:00;;;;;;;8.20;5.30;;;13.40;99.90;;;;;;5002313;28;20026;-60
2022/05/10 04:41:24;;;;;;;14.65;5.97;;;13.50;99.90;;;;;;5009912;28;20049;-61
2022/05/10 04:42:11;;;;;;;10.32;5.57;;;13.50;99.90;;;;;;4993191;28;20071;-60
2022/05/10 04:44:36;;;;;;;8.75;5.90;;;13.60;99.90;;;;;;5010015;28;20026;-60
2022/05/10 04:47:02;;;;;;;10.52;5.38;;;13.70;99.90;;;;;;5003115;28;20027;-60
2022/05/10 04:49:27;;;;;;;10.88;5.57;;;13.80;99.90;;;;;;4994885;28;20042;-61
2022/05/10 04:51:53;;;;;;;9.27;5.43;;;13.80;99.90;;;;;;5010536;28;20117;-60
2022/05/10 04:54:19;;;;;;;8.90;5.35;;;13.90;99.90;;;;;;5002658;28;20475;-60
2022/05/10 04:56:44;;;;;;;9.75;5.63;;;14.00;99.90;;;;;;5005706;28;20030;-60
2022/05/10 04:59:10;;;;;;;7.80;5.38;;;14.10;99.90;;;;;;5005866;28;20659;-60
2022/05/10 05:01:35;;;;;;;12.98;5.55;;;14.20;99.90;;;;;;5011053;28;20113;-61
2022/05/10 05:04:01;;;;;;;8.63;5.53;;;14.20;99.90;;;;;;5003895;28;20157;-60
2022/05/10 05:06:27;;;;;;;8.57;5.32;;;14.40;99.90;;;;;;5007795;28;20092;-60
2022/05/10 05:08:53;;;;;;;10.13;5.57;;;14.50;99.90;;;;;;4996014;28;20372;-61
2022/05/10 05:11:19;;;;;;;7.28;4.53;;;14.60;99.90;;;;;;5007893;28;20049;-60
2022/05/10 05:13:44;;;;;;;7.47;4.97;;;14.80;99.90;;;;;;5007747;28;20040;-60
2022/05/10 05:16:10;;;;;;;6.45;5.18;;;14.90;99.90;;;;;;5009852;28;20033;-60
2022/05/10 05:18:35;;;;;;;7.25;4.80;;;15.00;99.90;;;;;;5000858;28;20024;-59
2022/05/10 05:21:01;;;;;;;6.93;4.65;;;15.20;99.90;;;;;;5010101;28;20136;-60
2022/05/10 05:23:27;;;;;;;6.72;5.25;;;15.30;99.90;;;;;;5009946;28;20037;-61
2022/05/10 05:25:55;;;;;;;9.38;5.20;;;15.40;99.90;;;;;;5006267;28;20496;-61
2022/05/10 05:28:21;;;;;;;6.82;5.07;;;15.50;99.90;;;;;;5009228;28;20125;-60
2022/05/10 05:30:47;;;;;;;7.95;4.10;;;15.60;99.90;;;;;;5009123;28;20087;-61
2022/05/10 05:33:14;;;;;;;7.18;5.32;;;15.60;99.90;;;;;;5006424;28;20026;-58
2022/05/10 05:35:40;;;;;;;7.43;5.70;;;15.60;99.90;;;;;;4999485;28;20022;-60
2022/05/10 05:38:06;;;;;;;7.97;5.35;;;15.70;99.90;;;;;;5004337;28;20514;-60
2022/05/10 05:40:33;;;;;;;7.95;5.13;;;15.80;99.90;;;;;;5009137;28;20030;-59
2022/05/10 05:42:59;;;;;;;6.47;4.68;;;16.00;99.90;;;;;;4995353;28;20052;-60
2022/05/10 05:45:25;;;;;;;7.47;5.38;;;16.10;99.90;;;;;;4998052;28;20037;-60
2022/05/10 05:47:52;;;;;;;8.93;5.43;;;16.20;99.90;;;;;;5004420;28;20421;-60
2022/05/10 05:50:20;;;;;;;5.90;4.40;;;16.40;99.90;;;;;;5008274;28;20550;-61
2022/05/10 05:52:47;;;;;;;7.82;5.13;;;16.60;99.90;;;;;;5004461;28;20034;-60
2022/05/10 05:55:13;;;;;;;5.93;4.53;;;16.80;99.70;;;;;;5005628;28;20022;-61
2022/05/10 05:57:39;;;;;;;5.78;4.40;;;17.10;99.80;;;;;;5007087;28;20046;-60
2022/05/10 06:00:08;;;;;;;6.20;4.72;;;17.70;98.70;;;;;;5002891;28;20065;-60
2022/05/10 06:02:34;;;;;;;8.68;4.82;;;18.70;98.20;;;;;;5009768;28;20026;-61
2022/05/10 06:05:00;;;;;;;4.70;4.20;;;19.70;96.30;;;;;;5005160;28;20451;-61
2022/05/10 06:07:25;;;;;;;6.13;4.50;;;20.10;94.20;;;;;;5004781;28;20556;-61
2022/05/10 06:09:51;;;;;;;9.93;4.05;;;20.70;93.00;;;;;;5009384;28;20072;-61
2022/05/10 06:12:19;;;;;;;8.25;4.07;;;21.90;91.70;;;;;;5007414;28;20056;-60
2022/05/10 06:14:45;;;;;;;7.20;3.95;;;22.40;89.30;;;;;;5007461;28;20041;-61
2022/05/10 06:17:12;;;;;;;6.93;3.45;;;22.50;88.50;;;;;;5009729;28;20030;-61
2022/05/10 06:19:39;;;;;;;4.30;3.83;;;22.90;87.40;;;;;;4999327;28;20022;-61
2022/05/10 06:22:07;;;;;;;4.43;3.05;;;23.10;85.10;;;;;;5009860;28;20446;-61
2022/05/10 06:24:33;;;;;;;5.43;3.42;;;23.60;85.10;;;;;;5004052;28;20509;-61
2022/05/10 06:27:00;;;;;;;4.00;3.53;;;24.10;82.80;;;;;;5009817;28;20025;-61
2022/05/10 06:29:26;;;;;;;4.70;3.35;;;24.80;81.10;;;;;;4998310;28;20112;-61
2022/05/10 06:31:51;;;;;;;7.97;3.80;;;24.70;80.80;;;;;;5008690;28;20112;-61
2022/05/10 06:34:17;;;;;;;6.35;3.75;;;25.40;78.20;;;;;;5006542;28;20030;-61
2022/05/10 06:36:44;;;;;;;9.93;3.65;;;25.80;79.20;;;;;;5001961;28;20030;-61
2022/05/10 06:39:09;;;;;;;5.45;3.30;;;26.30;75.40;;;;;;5005144;28;20093;-62
2022/05/10 06:41:35;;;;;;;5.13;3.70;;;26.70;75.10;;;;;;4991613;28;20090;-61
2022/05/10 06:44:02;;;;;;;5.03;3.40;;;28.10;72.60;;;;;;5008239;28;20029;-62
2022/05/10 06:46:31;;;;;;;5.70;3.30;;;27.70;72.40;;;;;;5008748;28;20033;-62
2022/05/10 06:48:56;;;;;;;6.80;3.50;;;28.20;70.70;;;;;;5007342;28;20029;-61
2022/05/10 06:51:23;;;;;;;4.55;2.97;;;28.60;70.00;;;;;;5007481;28;20095;-62
2022/05/10 06:53:50;;;;;;;3.65;3.30;;;29.10;66.70;;;;;;4997780;28;20021;-62
2022/05/10 06:56:16;;;;;;;7.18;3.38;;;28.40;68.00;;;;;;5004933;28;20149;-61
2022/05/10 06:58:42;;;;;;;5.65;3.35;;;27.90;68.30;;;;;;5007860;28;20022;-62
2022/05/10 07:01:12;;;;;;;8.32;3.58;;;27.50;70.30;;;;;;5001663;28;20495;-62
2022/05/10 07:03:46;;;;;;;5.13;3.10;;;27.50;68.80;;;;;;5004314;28;20372;-61
2022/05/10 07:06:14;;;;;;;6.82;4.15;;;27.90;69.10;;;;;;5008759;28;20018;-60
2022/05/10 07:08:39;;;;;;;4.68;3.65;;;26.90;69.10;;;;;;5008686;28;20137;-61
2022/05/10 07:11:06;;;;;;;8.98;3.38;;;26.20;70.70;;;;;;5004287;28;20631;-60
2022/05/10 07:13:32;;;;;;;4.38;2.92;;;26.30;72.70;;;;;;5001454;28;20115;-62
2022/05/10 07:15:58;;;;;;;4.60;3.50;;;26.50;74.30;;;;;;5004600;28;20018;-62
2022/05/10 07:18:25;;;;;;;4.28;3.35;;;27.30;73.00;;;;;;5003040;28;20034;-62
2022/05/10 07:20:51;;;;;;;7.57;3.63;;;27.50;71.20;;;;;;5011103;28;20091;-60
2022/05/10 07:23:22;;;;;;;5.30;3.08;;;27.80;70.90;;;;;;5001762;28;20518;-60
2022/05/10 07:25:48;;;;;;;5.07;3.70;;;27.40;71.70;;;;;;5004285;28;20483;-61
2022/05/10 07:28:14;;;;;;;7.30;3.60;;;27.30;71.00;;;;;;5003284;28;20031;-60
2022/05/10 07:30:40;;;;;;;4.70;3.22;;;27.20;70.90;;;;;;5007000;28;20113;-61
2022/05/10 07:33:06;;;;;;;8.13;3.10;;;27.30;69.80;;;;;;5010227;28;20030;-61
2022/05/10 07:38:18;;;;;;;6.43;3.00;;;26.50;72.20;;;;;;5011598;28;20033;-61
2022/05/10 07:40:47;;;;;;;6.63;3.60;;;26.90;72.40;;;;;;5004609;28;20055;-60
2022/05/10 07:43:14;;;;;;;5.55;2.90;;;27.20;72.90;;;;;;4995017;28;20068;-60
2022/05/10 07:45:45;;;;;;;4.07;3.25;;;27.80;71.30;;;;;;5012319;28;20060;-60
2022/05/10 07:48:11;;;;;;;6.40;3.58;;;29.00;68.90;;;;;;5012405;28;20041;-61
2022/05/10 07:50:37;;;;;;;6.60;3.35;;;28.80;68.10;;;;;;5007263;28;20026;-61
2022/05/10 07:53:06;;;;;;;5.93;3.25;;;28.60;68.30;;;;;;5012234;28;20064;-61
2022/05/10 07:55:36;;;;;;;5.65;3.22;;;29.90;67.20;;;;;;5011301;28;20022;-61
2022/05/10 07:58:04;;;;;;;7.45;3.03;;;30.00;66.50;;;;;;5005316;28;20057;-62
2022/05/10 08:00:30;;;;;;;5.40;3.15;;;29.90;65.90;;;;;;5007222;28;20028;-60
2022/05/10 08:02:56;;;;;;;5.97;3.13;;;29.70;68.70;;;;;;5009453;28;20092;-61
2022/05/10 08:05:24;;;;;;;4.78;2.80;;;29.40;68.20;;;;;;5006911;28;20037;-61
2022/05/10 08:07:51;;;;;;;8.40;3.47;;;29.90;66.00;;;;;;5005484;28;20113;-62
2022/05/10 08:10:17;;;;;;;7.43;3.03;;;31.30;65.30;;;;;;5001184;28;20033;-60
2022/05/10 08:12:43;;;;;;;10.30;3.53;;;31.90;63.60;;;;;;4997978;28;20053;-59
2022/05/10 08:15:10;;;;;;;4.47;3.08;;;31.10;61.60;;;;;;5002732;28;20056;-61
2022/05/10 08:17:35;;;;;;;5.30;3.47;;;29.50;63.70;;;;;;5012319;28;20128;-62
2022/05/10 08:20:01;;;;;;;5.68;2.92;;;28.90;67.10;;;;;;5009487;28;20542;-61
2022/05/10 08:22:26;;;;;;;5.30;3.20;;;29.40;66.90;;;;;;5011367;28;20462;-61
2022/05/10 08:24:52;;;;;;;7.35;2.90;;;29.80;66.00;;;;;;5010620;28;20033;-61
2022/05/10 08:27:17;;;;;;;11.52;3.25;;;29.80;65.70;;;;;;5005157;28;20049;-60
2022/05/10 08:29:43;;;;;;;5.30;3.25;;;30.00;65.30;;;;;;5010504;28;20033;-61
2022/05/10 08:32:09;;;;;;;5.95;3.00;;;29.40;64.30;;;;;;5010165;28;20056;-61
2022/05/10 08:34:36;;;;;;;4.15;3.17;;;30.00;65.10;;;;;;5002998;28;20026;-61
2022/05/10 08:37:02;;;;;;;10.30;2.70;;;30.10;64.80;;;;;;5009779;28;20486;-60
2022/05/10 08:39:28;;;;;;;4.90;3.17;;;30.00;65.60;;;;;;5004603;28;20033;-61
2022/05/10 08:42:17;;;;;;;4.32;2.60;;;30.50;65.60;;;;;;4999408;28;20034;-60
2022/05/10 08:44:46;;;;;;;5.50;3.13;;;31.00;64.50;;;;;;4988928;28;20046;-61
2022/05/10 08:47:13;;;;;;;6.68;3.45;;;31.20;65.10;;;;;;5006498;28;20026;-62
2022/05/10 08:49:50;;;;;;;6.28;2.90;;;31.00;65.10;;;;;;5000682;28;20025;-61
2022/05/10 08:52:17;;;;;;;9.27;3.15;;;31.00;63.40;;;;;;5005619;28;20022;-61
2022/05/10 08:54:44;;;;;;;7.90;3.40;;;30.50;63.90;;;;;;5000729;28;20021;-61
2022/05/10 08:57:22;;;;;;;7.93;3.60;;;29.40;65.50;;;;;;4998725;28;20077;-61
2022/05/10 09:00:10;;;;;;;7.00;2.90;;;29.10;67.50;;;;;;5010164;28;20025;-61
2022/05/10 09:02:45;;;;;;;8.82;3.55;;;28.80;68.40;;;;;;5010001;28;20041;-60
2022/05/10 09:05:44;;;;;;;11.88;3.15;;;28.80;69.40;;;;;;5009626;28;20450;-61
2022/05/10 09:08:23;;;;;;;7.43;3.45;;;29.10;66.60;;;;;;4999213;28;20184;-59
2022/05/10 09:11:00;;;;;;;4.97;3.17;;;29.60;67.50;;;;;;5003232;28;20083;-62
2022/05/10 09:13:26;;;;;;;14.48;3.60;;;29.70;68.80;;;;;;5007023;28;20037;-61
2022/05/10 09:15:55;;;;;;;4.97;3.40;;;30.60;65.50;;;;;;4998541;28;20034;-62
2022/05/10 09:18:39;;;;;;;10.10;3.20;;;31.20;64.50;;;;;;5007462;28;20033;-62
2022/05/10 09:21:23;;;;;;;4.35;3.03;;;31.40;66.00;;;;;;5007548;28;20060;-57
2022/05/10 09:23:52;;;;;;;6.85;3.22;;;31.20;61.80;;;;;;4994347;28;20025;-61
2022/05/10 09:26:23;;;;;;;12.57;3.00;;;30.30;64.40;;;;;;5002326;28;20054;-60
2022/05/10 09:29:00;;;;;;;10.55;3.25;;;30.50;66.40;;;;;;5005885;28;20357;-59
2022/05/10 09:37:09;;;;;;;3.30;2.65;;;31.10;60.30;;;;;;5008691;28;20087;-58
2022/05/10 09:39:35;;;;;;;4.72;2.50;;;31.80;59.80;;;;;;5006690;28;20030;-59
2022/05/10 09:42:01;;;;;;;4.78;2.50;;;32.50;59.70;;;;;;5002048;28;20053;-59
2022/05/10 09:44:28;;;;;;;6.82;3.10;;;32.80;57.80;;;;;;4980357;28;20054;-59
2022/05/10 09:47:16;;;;;;;4.47;2.95;;;32.50;57.60;;;;;;5009500;28;20034;-59
2022/05/10 09:49:42;;;;;;;5.53;2.90;;;33.00;57.00;;;;;;4998053;28;20042;-58
2022/05/10 09:52:18;;;;;;;7.35;2.50;;;32.80;56.10;;;;;;5002967;28;20026;-60
2022/05/10 09:54:44;;;;;;;8.65;2.70;;;32.30;55.60;;;;;;4998475;28;20022;-62
2022/05/10 09:57:24;;;;;;;5.95;2.95;;;31.80;57.00;;;;;;5002409;28;20018;-61
2022/05/10 09:59:50;;;;;;;5.85;2.60;;;31.60;55.70;;;;;;4998817;28;20025;-61
2022/05/10 10:02:32;;;;;;;4.60;2.30;;;30.40;56.50;;;;;;5009607;28;20060;-61
2022/05/10 10:04:57;;;;;;;4.50;2.97;;;29.50;56.00;;;;;;5006496;28;20029;-62
2022/05/10 10:07:26;;;;;;;5.07;2.30;;;29.00;58.20;;;;;;5009126;28;20021;-60
2022/05/10 10:09:55;;;;;;;5.35;2.40;;;28.60;57.90;;;;;;5001785;28;20025;-61
2022/05/10 10:12:40;;;;;;;5.28;2.80;;;28.90;59.70;;;;;;5006697;28;20034;-61
2022/05/10 10:15:36;;;;;;;6.68;2.30;;;28.70;58.60;;;;;;5007777;28;20044;-61
2022/05/10 10:18:06;;;;;;;4.35;2.45;;;28.60;58.40;;;;;;5001410;28;20026;-61
2022/05/10 10:20:48;;;;;;;5.72;2.30;;;28.50;57.70;;;;;;4997158;28;20391;-61
2022/05/10 10:23:34;;;;;;;4.72;2.05;;;29.10;58.20;;;;;;5010351;28;20041;-59
2022/05/10 10:26:26;;;;;;;5.28;2.22;;;29.70;56.80;;;;;;5009114;28;20032;-60
2022/05/10 10:29:09;;;;;;;4.15;2.22;;;29.80;55.50;;;;;;5004316;28;20031;-61
2022/05/10 10:31:40;;;;;;;7.13;2.80;;;29.60;56.00;;;;;;5011310;28;20034;-60
2022/05/10 10:34:35;;;;;;;6.68;2.58;;;29.30;56.80;;;;;;5010220;28;20042;-61
2022/05/10 10:37:11;;;;;;;3.80;2.25;;;29.30;58.20;;;;;;4964057;28;20034;-61
2022/05/10 10:39:48;;;;;;;6.80;2.58;;;29.20;58.60;;;;;;5009936;28;20125;-61
2022/05/10 10:42:48;;;;;;;4.25;2.30;;;28.90;57.60;;;;;;5006843;28;20056;-60
2022/05/10 10:45:15;;;;;;;6.45;2.40;;;28.70;57.00;;;;;;5002041;28;20049;-61
2022/05/10 10:47:59;;;;;;;2.20;1.95;;;28.70;57.70;;;;;;5000486;28;20026;-61
2022/05/10 10:50:28;;;;;;;3.10;2.00;;;29.10;55.70;;;;;;5009125;28;20156;-60
2022/05/10 10:52:56;;;;;;;7.70;2.40;;;29.20;56.20;;;;;;5006717;28;20026;-61
2022/05/10 10:55:40;;;;;;;5.55;2.22;;;29.40;55.30;;;;;;5011098;28;20025;-60
2022/05/10 10:58:30;;;;;;;5.50;2.38;;;29.10;54.20;;;;;;5003618;28;20049;-61
2022/05/10 11:01:11;;;;;;;5.20;2.45;;;28.50;56.30;;;;;;5011064;28;20018;-61
2022/05/10 11:03:55;;;;;;;7.25;2.83;;;28.00;55.60;;;;;;5008258;28;20030;-61
2022/05/10 11:06:26;;;;;;;4.72;2.22;;;28.00;56.50;;;;;;5010418;28;20076;-61
2022/05/10 11:09:20;;;;;;;3.70;2.05;;;28.40;56.80;;;;;;5009968;28;20061;-60
2022/05/10 11:12:02;;;;;;;8.20;2.30;;;28.60;57.70;;;;;;5006266;28;20027;-60
2022/05/10 11:14:39;;;;;;;8.00;2.10;;;28.50;56.50;;;;;;5005571;28;20022;-61
2022/05/10 11:17:10;;;;;;;5.22;1.92;;;28.40;55.10;;;;;;5007601;28;20073;-60
2022/05/10 11:19:59;;;;;;;6.80;2.53;;;28.30;54.50;;;;;;5003358;28;20026;-60
2022/05/10 11:22:34;;;;;;;4.30;2.50;;;28.40;55.40;;;;;;4979923;28;20056;-59
2022/05/10 11:25:13;;;;;;;4.20;2.25;;;28.70;56.00;;;;;;4985198;28;20030;-53
2022/05/10 11:28:16;;;;;;;3.58;1.90;;;28.80;55.00;;;;;;4988526;28;20026;-59
2022/05/10 11:31:00;;;;;;;3.33;2.22;;;28.50;53.20;;;;;;4989131;28;20034;-61
2022/05/10 11:33:36;;;;;;;;;;;28.70;54.80;;;;;;4986647;28;20117;-61
2022/05/10 11:36:20;;;;;;;4.28;1.80;;;28.80;55.20;;;;;;4986099;28;19964;-61
2022/05/10 11:38:56;;;;;;;4.25;2.25;;;29.20;55.60;;;;;;4985865;28;20065;-60
2022/05/10 11:41:35;;;;;;;4.88;1.90;;;29.10;52.60;;;;;;4989508;28;20025;-60
2022/05/10 11:44:31;;;;;;;5.50;2.40;;;28.90;53.00;;;;;;4978391;28;20049;-60
2022/05/10 11:47:26;;;;;;;3.33;2.03;;;28.90;53.50;;;;;;5011022;28;20406;-59
2022/05/10 11:49:57;;;;;;;5.63;1.95;;;29.00;53.40;;;;;;5009687;28;20026;-61
2022/05/10 11:52:44;;;;;;;7.32;2.30;;;28.70;55.00;;;;;;5010444;28;20036;-62
2022/05/10 11:55:27;;;;;;;3.38;2.10;;;28.30;54.90;;;;;;5009896;28;20026;-61
2022/05/10 11:57:59;;;;;;;6.20;2.40;;;28.10;55.80;;;;;;5011777;28;20484;-61
2022/05/10 12:00:27;;;;;;;2.22;2.00;;;27.80;56.50;;;;;;5009318;28;20048;-61
2022/05/10 12:02:54;;;;;;;5.25;2.40;;;28.10;57.90;;;;;;5008570;28;20387;-61
2022/05/10 12:05:23;;;;;;;2.60;2.20;;;28.10;57.70;;;;;;5004289;28;20029;-61
2022/05/10 12:07:59;;;;;;;4.63;2.40;;;28.20;55.50;;;;;;5000260;28;20029;-59
2022/05/10 12:10:41;;;;;;;4.15;2.00;;;28.30;55.50;;;;;;4997045;28;20030;-61
2022/05/10 12:22:47;;;;;;;7.57;2.28;;;28.30;56.50;;;;;;5006858;28;20045;-61
2022/05/10 12:25:50;;;;;;;9.30;2.95;;;28.30;56.70;;;;;;5006985;28;20101;-61
2022/05/10 12:28:45;;;;;;;7.80;2.63;;;28.30;55.60;;;;;;5000503;28;20092;-60
2022/05/10 12:31:35;;;;;;;3.95;1.90;;;28.00;55.70;;;;;;5002250;28;20096;-60
2022/05/10 12:34:07;;;;;;;2.90;1.85;;;27.80;55.80;;;;;;5005104;28;20034;-60
2022/05/10 12:36:35;;;;;;;3.45;2.35;;;28.10;58.20;;;;;;5008272;28;20025;-59
2022/05/10 12:39:29;;;;;;;3.97;2.28;;;28.20;56.70;;;;;;5005712;28;20451;-61
2022/05/10 12:42:10;;;;;;;;;;;28.00;56.90;;;;;;5006911;28;20033;-61
2022/05/10 12:45:09;;;;;;;3.80;2.33;;;28.20;58.70;;;;;;4980856;28;19925;-59
2022/05/10 12:47:51;;;;;;;5.40;2.25;;;28.20;57.90;;;;;;5011082;28;20052;-61
2022/05/10 12:50:29;;;;;;;7.07;2.70;;;27.70;57.50;;;;;;5003435;28;20038;-61
2022/05/10 12:52:55;;;;;;;4.03;2.30;;;27.70;58.00;;;;;;5010218;28;20064;-61
2022/05/10 12:55:25;;;;;;;6.47;2.38;;;27.70;57.30;;;;;;5004960;28;20062;-60
2022/05/10 12:58:09;;;;;;;4.68;2.30;;;27.70;57.40;;;;;;5010819;28;20044;-61
2022/05/10 13:00:48;;;;;;;5.80;2.25;;;27.70;57.20;;;;;;5007790;28;20791;-57
2022/05/10 13:03:22;;;;;;;4.47;2.63;;;27.80;58.70;;;;;;5010286;28;20695;-61
2022/05/10 13:06:03;;;;;;;4.55;2.65;;;27.60;57.20;;;;;;5008965;28;20022;-61
2022/05/10 13:08:38;;;;;;;2.55;1.95;;;27.40;58.30;;;;;;5006782;28;20022;-61
2022/05/10 13:11:05;;;;;;;5.95;2.92;;;27.40;57.70;;;;;;4995738;28;20034;-61
2022/05/10 13:13:32;;;;;;;6.43;2.95;;;27.50;59.00;;;;;;4993737;28;20175;-61
2022/05/10 13:16:00;;;;;;;3.78;2.47;;;27.60;59.70;;;;;;4995303;28;20034;-61
2022/05/10 13:18:28;;;;;;;7.03;2.60;;;27.20;58.40;;;;;;4995132;28;20022;-61
2022/05/10 13:20:56;;;;;;;6.53;3.33;;;27.50;59.40;;;;;;4998680;28;20029;-60
2022/05/10 13:23:28;;;;;;;3.45;2.35;;;27.60;57.80;;;;;;5002410;28;20030;-61
2022/05/10 13:25:54;;;;;;;10.43;2.28;;;27.90;58.60;;;;;;4997466;28;20038;-59
2022/05/10 13:28:22;;;;;;;28.80;5.55;;;28.00;58.70;;;;;;4994845;28;20044;-60
2022/05/10 13:30:56;;;;;;;23.40;6.30;;;28.10;57.70;;;;;;4995263;28;20045;-61